Borger, Netherlands
Current Conditions -  °F | °C
As of 2:25 AM on Friday 28 Nov 2014 (Local Time) from EHGG Reporting Station
Overcast Overcast  
Wind Chill: 32°   Ceiling: 4500
Heat Index: 39°   Visibility: 4mi
Dew Point: 34°   Wind: 12mph
Humidity: 81%   Direction: 100°E
Pressure: 29.8"   Gusts: NA
Location:  52.92°N, 6.79°E
Report Text: EHGG 280125Z AUTO 10010KT 060V140 7000 OVC045 04/01 Q1009
Loading
Personal Weather Stations






























Interactive Weather Map New forecast layout! Learn more

10-Day Weather Forecast

Advertisements
Track Severe Weather on mobile